sensor_id;sensor_type;location;lat;lon;timestamp;P1;durP1;ratioP1;P2;durP2;ratioP2
37383;SDS011;23258;49.718;11.082;2024-02-26T00:01:56;4.07;;;2.42;;
37383;SDS011;23258;49.718;11.082;2024-02-26T00:04:26;2.85;;;2.50;;
37383;SDS011;23258;49.718;11.082;2024-02-26T00:06:55;2.75;;;2.50;;
37383;SDS011;23258;49.718;11.082;2024-02-26T00:09:25;2.38;;;2.17;;
37383;SDS011;23258;49.718;11.082;2024-02-26T00:11:55;2.75;;;2.38;;
37383;SDS011;23258;49.718;11.082;2024-02-26T00:14:28;2.50;;;2.30;;
37383;SDS011;23258;49.718;11.082;2024-02-26T00:16:58;2.67;;;2.20;;
37383;SDS011;23258;49.718;11.082;2024-02-26T00:19:28;2.70;;;2.50;;
37383;SDS011;23258;49.718;11.082;2024-02-26T00:21:58;4.55;;;2.67;;
37383;SDS011;23258;49.718;11.082;2024-02-26T00:24:27;2.90;;;2.40;;
37383;SDS011;23258;49.718;11.082;2024-02-26T00:26:57;3.13;;;2.67;;
37383;SDS011;23258;49.718;11.082;2024-02-26T00:29:30;2.65;;;2.45;;
37383;SDS011;23258;49.718;11.082;2024-02-26T00:32:00;2.63;;;2.42;;
37383;SDS011;23258;49.718;11.082;2024-02-26T00:34:30;2.30;;;2.10;;
37383;SDS011;23258;49.718;11.082;2024-02-26T00:37:01;2.75;;;2.55;;
37383;SDS011;23258;49.718;11.082;2024-02-26T00:39:31;2.38;;;2.17;;
37383;SDS011;23258;49.718;11.082;2024-02-26T00:42:00;2.72;;;2.45;;
37383;SDS011;23258;49.718;11.082;2024-02-26T00:44:33;2.75;;;2.55;;
37383;SDS011;23258;49.718;11.082;2024-02-26T00:47:03;2.80;;;2.47;;
37383;SDS011;23258;49.718;11.082;2024-02-26T00:49:32;3.97;;;2.72;;
37383;SDS011;23258;49.718;11.082;2024-02-26T00:52:02;2.20;;;2.10;;
37383;SDS011;23258;49.718;11.082;2024-02-26T00:54:32;3.78;;;3.20;;
37383;SDS011;23258;49.718;11.082;2024-02-26T00:57:02;3.42;;;2.05;;
37383;SDS011;23258;49.718;11.082;2024-02-26T00:59:35;2.53;;;2.42;;
37383;SDS011;23258;49.718;11.082;2024-02-26T01:02:05;2.92;;;2.70;;
37383;SDS011;23258;49.718;11.082;2024-02-26T01:04:35;2.88;;;2.63;;
37383;SDS011;23258;49.718;11.082;2024-02-26T01:07:04;2.60;;;2.40;;
37383;SDS011;23258;49.718;11.082;2024-02-26T01:09:34;2.65;;;2.35;;
37383;SDS011;23258;49.718;11.082;2024-02-26T01:12:04;2.20;;;2.08;;
37383;SDS011;23258;49.718;11.082;2024-02-26T01:14:36;2.78;;;2.53;;
37383;SDS011;23258;49.718;11.082;2024-02-26T01:17:06;3.42;;;2.72;;
37383;SDS011;23258;49.718;11.082;2024-02-26T01:19:36;5.22;;;2.67;;
37383;SDS011;23258;49.718;11.082;2024-02-26T01:22:05;3.65;;;2.53;;
37383;SDS011;23258;49.718;11.082;2024-02-26T01:24:35;3.47;;;2.30;;
37383;SDS011;23258;49.718;11.082;2024-02-26T01:27:05;2.58;;;2.38;;
37383;SDS011;23258;49.718;11.082;2024-02-26T01:29:38;2.28;;;2.05;;
37383;SDS011;23258;49.718;11.082;2024-02-26T01:32:08;2.40;;;2.22;;
37383;SDS011;23258;49.718;11.082;2024-02-26T01:34:37;2.83;;;2.60;;
37383;SDS011;23258;49.718;11.082;2024-02-26T01:37:07;2.25;;;2.05;;
37383;SDS011;23258;49.718;11.082;2024-02-26T01:39:37;3.60;;;2.22;;
37383;SDS011;23258;49.718;11.082;2024-02-26T01:42:08;2.30;;;2.20;;
37383;SDS011;23258;49.718;11.082;2024-02-26T01:44:40;2.28;;;1.98;;
37383;SDS011;23258;49.718;11.082;2024-02-26T01:47:11;2.60;;;2.40;;
37383;SDS011;23258;49.718;11.082;2024-02-26T01:49:41;2.40;;;2.20;;
37383;SDS011;23258;49.718;11.082;2024-02-26T01:52:11;2.50;;;2.30;;
37383;SDS011;23258;49.718;11.082;2024-02-26T01:54:41;4.38;;;2.25;;
37383;SDS011;23258;49.718;11.082;2024-02-26T01:57:11;3.58;;;2.30;;
37383;SDS011;23258;49.718;11.082;2024-02-26T01:59:44;2.40;;;2.08;;
37383;SDS011;23258;49.718;11.082;2024-02-26T02:02:14;2.40;;;2.20;;
37383;SDS011;23258;49.718;11.082;2024-02-26T02:04:44;2.35;;;2.25;;
37383;SDS011;23258;49.718;11.082;2024-02-26T02:07:14;4.03;;;2.25;;
37383;SDS011;23258;49.718;11.082;2024-02-26T02:09:44;3.03;;;2.20;;
37383;SDS011;23258;49.718;11.082;2024-02-26T02:12:14;2.30;;;2.10;;
37383;SDS011;23258;49.718;11.082;2024-02-26T02:14:46;2.05;;;1.95;;
37383;SDS011;23258;49.718;11.082;2024-02-26T02:17:16;2.33;;;2.13;;
37383;SDS011;23258;49.718;11.082;2024-02-26T02:19:46;5.45;;;2.65;;
37383;SDS011;23258;49.718;11.082;2024-02-26T02:22:18;3.22;;;2.47;;
37383;SDS011;23258;49.718;11.082;2024-02-26T02:24:48;2.45;;;2.33;;
37383;SDS011;23258;49.718;11.082;2024-02-26T02:27:18;2.25;;;2.05;;
37383;SDS011;23258;49.718;11.082;2024-02-26T02:29:48;2.97;;;2.15;;
37383;SDS011;23258;49.718;11.082;2024-02-26T02:32:18;2.80;;;2.55;;
37383;SDS011;23258;49.718;11.082;2024-02-26T02:34:48;2.78;;;2.40;;
37383;SDS011;23258;49.718;11.082;2024-02-26T02:37:21;2.30;;;2.20;;
37383;SDS011;23258;49.718;11.082;2024-02-26T02:39:51;2.80;;;2.45;;
37383;SDS011;23258;49.718;11.082;2024-02-26T02:42:21;1.88;;;1.77;;
37383;SDS011;23258;49.718;11.082;2024-02-26T02:44:51;2.60;;;2.40;;
37383;SDS011;23258;49.718;11.082;2024-02-26T02:47:21;2.33;;;2.13;;
37383;SDS011;23258;49.718;11.082;2024-02-26T02:49:51;1.98;;;1.80;;
37383;SDS011;23258;49.718;11.082;2024-02-26T02:52:23;2.45;;;2.20;;
37383;SDS011;23258;49.718;11.082;2024-02-26T02:54:52;2.70;;;2.15;;
37383;SDS011;23258;49.718;11.082;2024-02-26T02:57:22;2.20;;;2.10;;
37383;SDS011;23258;49.718;11.082;2024-02-26T02:59:52;2.30;;;2.13;;
37383;SDS011;23258;49.718;11.082;2024-02-26T03:02:22;2.38;;;2.17;;
37383;SDS011;23258;49.718;11.082;2024-02-26T03:04:52;3.17;;;2.88;;
37383;SDS011;23258;49.718;11.082;2024-02-26T03:07:24;3.47;;;2.75;;
37383;SDS011;23258;49.718;11.082;2024-02-26T03:09:54;2.60;;;2.20;;
37383;SDS011;23258;49.718;11.082;2024-02-26T03:12:24;2.33;;;2.20;;
37383;SDS011;23258;49.718;11.082;2024-02-26T03:14:54;2.38;;;2.17;;
37383;SDS011;23258;49.718;11.082;2024-02-26T03:17:24;3.13;;;2.63;;
37383;SDS011;23258;49.718;11.082;2024-02-26T03:19:54;2.30;;;2.10;;
37383;SDS011;23258;49.718;11.082;2024-02-26T03:22:26;2.35;;;2.15;;
37383;SDS011;23258;49.718;11.082;2024-02-26T03:24:56;2.75;;;2.55;;
37383;SDS011;23258;49.718;11.082;2024-02-26T03:27:26;3.28;;;2.08;;
37383;SDS011;23258;49.718;11.082;2024-02-26T03:29:56;2.42;;;2.30;;
37383;SDS011;23258;49.718;11.082;2024-02-26T03:32:26;2.47;;;2.33;;
37383;SDS011;23258;49.718;11.082;2024-02-26T03:34:56;2.90;;;2.65;;
37383;SDS011;23258;49.718;11.082;2024-02-26T03:37:29;2.55;;;2.35;;
37383;SDS011;23258;49.718;11.082;2024-02-26T03:39:59;3.17;;;2.88;;
37383;SDS011;23258;49.718;11.082;2024-02-26T03:42:29;2.45;;;2.25;;
37383;SDS011;23258;49.718;11.082;2024-02-26T03:44:59;2.42;;;2.10;;
37383;SDS011;23258;49.718;11.082;2024-02-26T03:47:29;2.95;;;2.35;;
37383;SDS011;23258;49.718;11.082;2024-02-26T03:49:59;2.78;;;2.58;;
37383;SDS011;23258;49.718;11.082;2024-02-26T03:52:31;3.15;;;2.55;;
37383;SDS011;23258;49.718;11.082;2024-02-26T03:55:01;2.95;;;2.75;;
37383;SDS011;23258;49.718;11.082;2024-02-26T03:57:30;2.75;;;2.35;;
37383;SDS011;23258;49.718;11.082;2024-02-26T04:00:00;2.80;;;2.03;;
37383;SDS011;23258;49.718;11.082;2024-02-26T04:02:36;2.53;;;2.33;;
37383;SDS011;23258;49.718;11.082;2024-02-26T04:05:09;3.40;;;2.25;;
37383;SDS011;23258;49.718;11.082;2024-02-26T04:07:41;4.13;;;2.58;;
37383;SDS011;23258;49.718;11.082;2024-02-26T04:10:11;2.63;;;2.42;;
37383;SDS011;23258;49.718;11.082;2024-02-26T04:12:41;2.40;;;1.92;;
37383;SDS011;23258;49.718;11.082;2024-02-26T04:15:11;2.45;;;2.25;;
37383;SDS011;23258;49.718;11.082;2024-02-26T04:17:41;2.65;;;2.30;;
37383;SDS011;23258;49.718;11.082;2024-02-26T04:20:13;2.58;;;2.38;;
37383;SDS011;23258;49.718;11.082;2024-02-26T04:22:46;2.70;;;2.50;;
37383;SDS011;23258;49.718;11.082;2024-02-26T04:25:16;2.60;;;2.45;;
37383;SDS011;23258;49.718;11.082;2024-02-26T04:27:45;2.90;;;2.70;;
37383;SDS011;23258;49.718;11.082;2024-02-26T04:30:15;3.30;;;2.80;;
37383;SDS011;23258;49.718;11.082;2024-02-26T04:32:45;3.03;;;2.70;;
37383;SDS011;23258;49.718;11.082;2024-02-26T04:35:15;2.97;;;2.67;;
37383;SDS011;23258;49.718;11.082;2024-02-26T04:37:47;2.65;;;2.45;;
37383;SDS011;23258;49.718;11.082;2024-02-26T04:40:17;3.22;;;2.92;;
37383;SDS011;23258;49.718;11.082;2024-02-26T04:42:46;4.88;;;2.88;;
37383;SDS011;23258;49.718;11.082;2024-02-26T04:45:16;2.92;;;2.63;;
37383;SDS011;23258;49.718;11.082;2024-02-26T04:47:46;4.47;;;2.60;;
37383;SDS011;23258;49.718;11.082;2024-02-26T04:50:16;3.30;;;3.00;;
37383;SDS011;23258;49.718;11.082;2024-02-26T04:52:48;2.80;;;2.60;;
37383;SDS011;23258;49.718;11.082;2024-02-26T04:55:18;4.90;;;3.10;;
37383;SDS011;23258;49.718;11.082;2024-02-26T04:57:47;3.10;;;2.80;;
37383;SDS011;23258;49.718;11.082;2024-02-26T05:00:17;2.55;;;2.35;;
37383;SDS011;23258;49.718;11.082;2024-02-26T05:02:47;3.33;;;3.13;;
37383;SDS011;23258;49.718;11.082;2024-02-26T05:05:17;3.50;;;3.17;;
37383;SDS011;23258;49.718;11.082;2024-02-26T05:07:49;3.38;;;2.72;;
37383;SDS011;23258;49.718;11.082;2024-02-26T05:10:19;3.15;;;2.78;;
37383;SDS011;23258;49.718;11.082;2024-02-26T05:12:49;3.08;;;2.80;;
37383;SDS011;23258;49.718;11.082;2024-02-26T05:15:19;2.95;;;2.75;;
37383;SDS011;23258;49.718;11.082;2024-02-26T05:17:49;3.10;;;2.80;;
37383;SDS011;23258;49.718;11.082;2024-02-26T05:20:19;3.08;;;2.78;;
37383;SDS011;23258;49.718;11.082;2024-02-26T05:22:51;6.72;;;3.00;;
37383;SDS011;23258;49.718;11.082;2024-02-26T05:25:21;3.17;;;2.63;;
37383;SDS011;23258;49.718;11.082;2024-02-26T05:27:51;3.35;;;3.05;;
37383;SDS011;23258;49.718;11.082;2024-02-26T05:30:20;3.53;;;3.15;;
37383;SDS011;23258;49.718;11.082;2024-02-26T05:32:50;3.40;;;3.05;;
37383;SDS011;23258;49.718;11.082;2024-02-26T05:35:20;3.88;;;3.13;;
37383;SDS011;23258;49.718;11.082;2024-02-26T05:37:52;3.35;;;3.05;;
37383;SDS011;23258;49.718;11.082;2024-02-26T05:40:22;2.40;;;2.20;;
37383;SDS011;23258;49.718;11.082;2024-02-26T05:42:52;3.88;;;3.50;;
37383;SDS011;23258;49.718;11.082;2024-02-26T05:45:21;5.22;;;3.45;;
37383;SDS011;23258;49.718;11.082;2024-02-26T05:47:51;3.70;;;3.38;;
37383;SDS011;23258;49.718;11.082;2024-02-26T05:50:21;4.97;;;2.78;;
37383;SDS011;23258;49.718;11.082;2024-02-26T05:52:54;3.35;;;3.05;;
37383;SDS011;23258;49.718;11.082;2024-02-26T05:55:24;3.67;;;3.38;;
37383;SDS011;23258;49.718;11.082;2024-02-26T05:57:54;3.22;;;2.92;;
37383;SDS011;23258;49.718;11.082;2024-02-26T06:00:24;3.55;;;3.25;;
37383;SDS011;23258;49.718;11.082;2024-02-26T06:02:53;4.05;;;3.72;;
37383;SDS011;23258;49.718;11.082;2024-02-26T06:05:23;4.07;;;3.67;;
37383;SDS011;23258;49.718;11.082;2024-02-26T06:07:55;4.55;;;3.83;;
37383;SDS011;23258;49.718;11.082;2024-02-26T06:10:25;4.15;;;3.75;;
37383;SDS011;23258;49.718;11.082;2024-02-26T06:12:55;3.70;;;3.40;;
37383;SDS011;23258;49.718;11.082;2024-02-26T06:15:25;3.65;;;3.35;;
37383;SDS011;23258;49.718;11.082;2024-02-26T06:17:54;3.95;;;3.53;;
37383;SDS011;23258;49.718;11.082;2024-02-26T06:20:24;4.00;;;3.40;;
37383;SDS011;23258;49.718;11.082;2024-02-26T06:22:56;3.60;;;3.30;;
37383;SDS011;23258;49.718;11.082;2024-02-26T06:25:27;5.03;;;3.35;;
37383;SDS011;23258;49.718;11.082;2024-02-26T06:27:57;4.00;;;3.20;;
37383;SDS011;23258;49.718;11.082;2024-02-26T06:30:27;5.53;;;3.08;;
37383;SDS011;23258;49.718;11.082;2024-02-26T06:32:56;3.22;;;2.92;;
37383;SDS011;23258;49.718;11.082;2024-02-26T06:35:26;3.55;;;3.35;;
37383;SDS011;23258;49.718;11.082;2024-02-26T06:37:59;3.47;;;3.17;;
37383;SDS011;23258;49.718;11.082;2024-02-26T06:40:28;3.67;;;3.35;;
37383;SDS011;23258;49.718;11.082;2024-02-26T06:42:58;3.17;;;2.97;;
37383;SDS011;23258;49.718;11.082;2024-02-26T06:45:28;4.35;;;3.53;;
37383;SDS011;23258;49.718;11.082;2024-02-26T06:47:58;3.38;;;3.08;;
37383;SDS011;23258;49.718;11.082;2024-02-26T06:50:28;3.63;;;3.33;;
37383;SDS011;23258;49.718;11.082;2024-02-26T06:53:00;3.30;;;3.00;;
37383;SDS011;23258;49.718;11.082;2024-02-26T06:55:29;3.22;;;2.97;;
37383;SDS011;23258;49.718;11.082;2024-02-26T06:57:59;5.18;;;3.80;;
37383;SDS011;23258;49.718;11.082;2024-02-26T07:00:29;3.95;;;3.55;;
37383;SDS011;23258;49.718;11.082;2024-02-26T07:02:59;3.55;;;3.25;;
37383;SDS011;23258;49.718;11.082;2024-02-26T07:05:31;4.53;;;3.42;;
37383;SDS011;23258;49.718;11.082;2024-02-26T07:08:04;4.80;;;3.17;;
37383;SDS011;23258;49.718;11.082;2024-02-26T07:10:34;3.53;;;3.15;;
37383;SDS011;23258;49.718;11.082;2024-02-26T07:13:04;3.33;;;3.10;;
37383;SDS011;23258;49.718;11.082;2024-02-26T07:15:33;4.20;;;3.80;;
37383;SDS011;23258;49.718;11.082;2024-02-26T07:18:03;4.45;;;4.05;;
37383;SDS011;23258;49.718;11.082;2024-02-26T07:20:33;4.00;;;3.63;;
37383;SDS011;23258;49.718;11.082;2024-02-26T07:23:06;5.07;;;3.92;;
37383;SDS011;23258;49.718;11.082;2024-02-26T07:25:36;4.05;;;3.63;;
37383;SDS011;23258;49.718;11.082;2024-02-26T07:28:06;3.97;;;3.67;;
37383;SDS011;23258;49.718;11.082;2024-02-26T07:30:36;5.15;;;3.92;;
37383;SDS011;23258;49.718;11.082;2024-02-26T07:33:06;3.55;;;3.25;;
37383;SDS011;23258;49.718;11.082;2024-02-26T07:35:36;3.90;;;3.40;;
37383;SDS011;23258;49.718;11.082;2024-02-26T07:38:08;5.70;;;4.28;;
37383;SDS011;23258;49.718;11.082;2024-02-26T07:40:56;4.95;;;4.40;;
37383;SDS011;23258;49.718;11.082;2024-02-26T07:43:29;4.32;;;3.92;;
37383;SDS011;23258;49.718;11.082;2024-02-26T07:45:59;4.03;;;3.63;;
37383;SDS011;23258;49.718;11.082;2024-02-26T07:48:29;7.15;;;3.65;;
37383;SDS011;23258;49.718;11.082;2024-02-26T07:50:59;3.47;;;3.17;;
37383;SDS011;23258;49.718;11.082;2024-02-26T07:53:32;4.22;;;3.83;;
37383;SDS011;23258;49.718;11.082;2024-02-26T07:56:02;4.32;;;3.92;;
37383;SDS011;23258;49.718;11.082;2024-02-26T07:58:32;3.03;;;2.80;;
37383;SDS011;23258;49.718;11.082;2024-02-26T08:01:02;3.90;;;3.42;;
37383;SDS011;23258;49.718;11.082;2024-02-26T08:03:32;3.80;;;3.50;;
37383;SDS011;23258;49.718;11.082;2024-02-26T08:06:02;3.60;;;3.30;;
37383;SDS011;23258;49.718;11.082;2024-02-26T08:08:35;3.63;;;3.33;;
37383;SDS011;23258;49.718;11.082;2024-02-26T08:11:04;6.07;;;4.38;;
37383;SDS011;23258;49.718;11.082;2024-02-26T08:13:35;3.67;;;3.28;;
37383;SDS011;23258;49.718;11.082;2024-02-26T08:16:05;4.38;;;3.97;;
37383;SDS011;23258;49.718;11.082;2024-02-26T08:18:35;3.97;;;3.60;;
37383;SDS011;23258;49.718;11.082;2024-02-26T08:21:05;4.95;;;4.38;;
37383;SDS011;23258;49.718;11.082;2024-02-26T08:23:38;5.35;;;3.42;;
37383;SDS011;23258;49.718;11.082;2024-02-26T08:26:08;3.80;;;3.45;;
37383;SDS011;23258;49.718;11.082;2024-02-26T08:28:38;4.75;;;3.53;;
37383;SDS011;23258;49.718;11.082;2024-02-26T08:31:08;5.25;;;3.60;;
37383;SDS011;23258;49.718;11.082;2024-02-26T08:33:38;3.55;;;3.25;;
37383;SDS011;23258;49.718;11.082;2024-02-26T08:36:08;4.03;;;3.60;;
37383;SDS011;23258;49.718;11.082;2024-02-26T08:38:40;3.10;;;2.72;;
37383;SDS011;23258;49.718;11.082;2024-02-26T08:41:10;4.57;;;4.18;;
37383;SDS011;23258;49.718;11.082;2024-02-26T08:43:40;4.07;;;3.67;;
37383;SDS011;23258;49.718;11.082;2024-02-26T08:46:09;4.28;;;3.28;;
37383;SDS011;23258;49.718;11.082;2024-02-26T08:48:39;4.70;;;3.47;;
37383;SDS011;23258;49.718;11.082;2024-02-26T08:51:09;3.92;;;3.58;;
37383;SDS011;23258;49.718;11.082;2024-02-26T08:53:42;4.18;;;3.08;;
37383;SDS011;23258;49.718;11.082;2024-02-26T08:56:12;4.05;;;3.65;;
37383;SDS011;23258;49.718;11.082;2024-02-26T08:58:45;4.13;;;3.72;;
37383;SDS011;23258;49.718;11.082;2024-02-26T09:01:15;3.95;;;3.63;;
37383;SDS011;23258;49.718;11.082;2024-02-26T09:03:45;3.75;;;3.35;;
37383;SDS011;23258;49.718;11.082;2024-02-26T09:06:15;4.43;;;3.70;;
37383;SDS011;23258;49.718;11.082;2024-02-26T09:08:48;3.97;;;3.50;;
37383;SDS011;23258;49.718;11.082;2024-02-26T09:11:18;5.25;;;3.65;;
37383;SDS011;23258;49.718;11.082;2024-02-26T09:13:47;3.50;;;3.20;;
37383;SDS011;23258;49.718;11.082;2024-02-26T09:16:17;3.90;;;3.60;;
37383;SDS011;23258;49.718;11.082;2024-02-26T09:18:47;4.50;;;3.42;;
37383;SDS011;23258;49.718;11.082;2024-02-26T09:21:17;3.55;;;3.15;;
37383;SDS011;23258;49.718;11.082;2024-02-26T09:23:56;3.30;;;3.10;;
37383;SDS011;23258;49.718;11.082;2024-02-26T09:26:25;3.15;;;2.85;;
37383;SDS011;23258;49.718;11.082;2024-02-26T09:28:55;3.25;;;2.95;;
37383;SDS011;23258;49.718;11.082;2024-02-26T09:31:25;4.00;;;3.25;;
37383;SDS011;23258;49.718;11.082;2024-02-26T09:33:55;3.08;;;2.80;;
37383;SDS011;23258;49.718;11.082;2024-02-26T09:36:28;3.67;;;3.13;;
37383;SDS011;23258;49.718;11.082;2024-02-26T09:39:00;3.63;;;2.80;;
37383;SDS011;23258;49.718;11.082;2024-02-26T09:41:30;3.22;;;2.92;;
37383;SDS011;23258;49.718;11.082;2024-02-26T09:44:00;3.05;;;2.75;;
37383;SDS011;23258;49.718;11.082;2024-02-26T09:46:32;4.10;;;3.70;;
37383;SDS011;23258;49.718;11.082;2024-02-26T09:49:01;3.92;;;3.28;;
37383;SDS011;23258;49.718;11.082;2024-02-26T09:51:32;2.72;;;2.50;;
37383;SDS011;23258;49.718;11.082;2024-02-26T09:54:04;3.30;;;3.00;;
37383;SDS011;23258;49.718;11.082;2024-02-26T09:56:37;3.33;;;3.13;;
37383;SDS011;23258;49.718;11.082;2024-02-26T09:59:21;2.95;;;2.75;;
37383;SDS011;23258;49.718;11.082;2024-02-26T10:01:51;4.00;;;3.00;;
37383;SDS011;23258;49.718;11.082;2024-02-26T10:04:22;2.78;;;2.50;;
37383;SDS011;23258;49.718;11.082;2024-02-26T10:06:52;2.83;;;2.63;;
37383;SDS011;23258;49.718;11.082;2024-02-26T10:09:24;2.88;;;2.65;;
37383;SDS011;23258;49.718;11.082;2024-02-26T10:11:55;2.63;;;2.28;;
37383;SDS011;23258;49.718;11.082;2024-02-26T10:14:26;2.45;;;2.35;;
37383;SDS011;23258;49.718;11.082;2024-02-26T10:16:56;3.33;;;2.78;;
37383;SDS011;23258;49.718;11.082;2024-02-26T10:19:28;3.28;;;2.60;;
37383;SDS011;23258;49.718;11.082;2024-02-26T10:22:01;2.75;;;2.55;;
37383;SDS011;23258;49.718;11.082;2024-02-26T10:24:34;3.25;;;2.72;;
37383;SDS011;23258;49.718;11.082;2024-02-26T10:27:04;3.58;;;3.08;;
37383;SDS011;23258;49.718;11.082;2024-02-26T10:29:34;2.67;;;2.47;;
37383;SDS011;23258;49.718;11.082;2024-02-26T10:32:04;3.00;;;2.80;;
37383;SDS011;23258;49.718;11.082;2024-02-26T10:34:34;2.85;;;2.58;;
37383;SDS011;23258;49.718;11.082;2024-02-26T10:37:04;2.92;;;2.33;;
37383;SDS011;23258;49.718;11.082;2024-02-26T10:39:38;2.83;;;2.53;;
37383;SDS011;23258;49.718;11.082;2024-02-26T10:42:12;3.05;;;2.75;;
37383;SDS011;23258;49.718;11.082;2024-02-26T10:44:44;3.47;;;3.17;;
37383;SDS011;23258;49.718;11.082;2024-02-26T10:47:15;2.97;;;2.78;;
37383;SDS011;23258;49.718;11.082;2024-02-26T10:49:46;2.92;;;2.63;;
37383;SDS011;23258;49.718;11.082;2024-02-26T10:52:17;2.78;;;2.53;;
37383;SDS011;23258;49.718;11.082;2024-02-26T10:54:52;2.63;;;2.42;;
37383;SDS011;23258;49.718;11.082;2024-02-26T10:57:26;2.80;;;2.60;;
37383;SDS011;23258;49.718;11.082;2024-02-26T10:59:59;2.78;;;2.58;;
37383;SDS011;23258;49.718;11.082;2024-02-26T11:02:31;2.70;;;2.50;;
37383;SDS011;23258;49.718;11.082;2024-02-26T11:05:02;3.40;;;3.08;;
37383;SDS011;23258;49.718;11.082;2024-02-26T11:07:32;2.90;;;2.70;;
37383;SDS011;23258;49.718;11.082;2024-02-26T11:10:07;3.25;;;2.47;;
37383;SDS011;23258;49.718;11.082;2024-02-26T11:12:38;2.80;;;2.60;;
37383;SDS011;23258;49.718;11.082;2024-02-26T11:15:09;2.53;;;2.33;;
37383;SDS011;23258;49.718;11.082;2024-02-26T11:17:39;2.38;;;2.13;;
37383;SDS011;23258;49.718;11.082;2024-02-26T11:20:10;2.75;;;2.55;;
37383;SDS011;23258;49.718;11.082;2024-02-26T11:22:40;1.63;;;1.52;;
37383;SDS011;23258;49.718;11.082;2024-02-26T11:25:13;2.22;;;2.03;;
37383;SDS011;23258;49.718;11.082;2024-02-26T11:27:44;2.83;;;2.63;;
37383;SDS011;23258;49.718;11.082;2024-02-26T11:30:16;2.78;;;2.55;;
37383;SDS011;23258;49.718;11.082;2024-02-26T11:32:47;2.20;;;2.10;;
37383;SDS011;23258;49.718;11.082;2024-02-26T11:35:17;2.58;;;2.38;;
37383;SDS011;23258;49.718;11.082;2024-02-26T11:37:53;2.67;;;2.47;;
37383;SDS011;23258;49.718;11.082;2024-02-26T11:40:26;2.40;;;2.20;;
37383;SDS011;23258;49.718;11.082;2024-02-26T11:42:56;2.00;;;1.90;;
37383;SDS011;23258;49.718;11.082;2024-02-26T11:48:13;2.58;;;2.38;;
37383;SDS011;23258;49.718;11.082;2024-02-26T11:50:46;2.35;;;2.17;;
37383;SDS011;23258;49.718;11.082;2024-02-26T11:53:22;2.10;;;1.98;;
37383;SDS011;23258;49.718;11.082;2024-02-26T11:58:41;2.53;;;2.22;;
37383;SDS011;23258;49.718;11.082;2024-02-26T12:03:56;2.35;;;2.15;;
37383;SDS011;23258;49.718;11.082;2024-02-26T12:06:26;1.90;;;1.80;;
37383;SDS011;23258;49.718;11.082;2024-02-26T12:08:56;2.38;;;2.17;;
37383;SDS011;23258;49.718;11.082;2024-02-26T12:11:27;1.98;;;1.80;;
37383;SDS011;23258;49.718;11.082;2024-02-26T12:13:59;2.30;;;2.20;;
37383;SDS011;23258;49.718;11.082;2024-02-26T12:16:36;1.98;;;1.88;;
37383;SDS011;23258;49.718;11.082;2024-02-26T12:19:06;2.10;;;1.98;;
37383;SDS011;23258;49.718;11.082;2024-02-26T12:21:36;2.03;;;1.92;;
37383;SDS011;23258;49.718;11.082;2024-02-26T12:24:07;2.30;;;2.10;;
37383;SDS011;23258;49.718;11.082;2024-02-26T12:26:39;2.17;;;1.77;;
37383;SDS011;23258;49.718;11.082;2024-02-26T12:29:11;3.05;;;2.28;;
37383;SDS011;23258;49.718;11.082;2024-02-26T12:31:41;2.05;;;1.95;;
37383;SDS011;23258;49.718;11.082;2024-02-26T12:34:11;2.83;;;2.50;;
37383;SDS011;23258;49.718;11.082;2024-02-26T12:36:43;1.92;;;1.83;;
37383;SDS011;23258;49.718;11.082;2024-02-26T12:39:13;4.88;;;2.33;;
37383;SDS011;23258;49.718;11.082;2024-02-26T12:41:43;2.10;;;1.85;;
37383;SDS011;23258;49.718;11.082;2024-02-26T12:44:19;2.13;;;1.98;;
37383;SDS011;23258;49.718;11.082;2024-02-26T12:46:59;2.45;;;2.25;;
37383;SDS011;23258;49.718;11.082;2024-02-26T12:49:30;1.65;;;1.55;;
37383;SDS011;23258;49.718;11.082;2024-02-26T12:52:00;3.15;;;1.90;;
37383;SDS011;23258;49.718;11.082;2024-02-26T12:54:31;2.13;;;2.00;;
37383;SDS011;23258;49.718;11.082;2024-02-26T12:57:01;1.58;;;1.52;;
37383;SDS011;23258;49.718;11.082;2024-02-26T12:59:36;1.55;;;1.45;;
37383;SDS011;23258;49.718;11.082;2024-02-26T13:02:06;1.52;;;1.42;;
37383;SDS011;23258;49.718;11.082;2024-02-26T13:04:36;2.33;;;2.13;;
37383;SDS011;23258;49.718;11.082;2024-02-26T13:07:06;1.58;;;1.48;;
37383;SDS011;23258;49.718;11.082;2024-02-26T13:09:36;2.55;;;1.85;;
37383;SDS011;23258;49.718;11.082;2024-02-26T13:12:07;2.10;;;1.90;;
37383;SDS011;23258;49.718;11.082;2024-02-26T13:14:39;3.20;;;1.85;;
37383;SDS011;23258;49.718;11.082;2024-02-26T13:17:09;1.85;;;1.42;;
37383;SDS011;23258;49.718;11.082;2024-02-26T13:19:48;1.90;;;1.73;;
37383;SDS011;23258;49.718;11.082;2024-02-26T13:22:20;1.25;;;1.25;;
37383;SDS011;23258;49.718;11.082;2024-02-26T13:24:53;1.60;;;1.50;;
37383;SDS011;23258;49.718;11.082;2024-02-26T13:27:23;2.40;;;2.20;;
37383;SDS011;23258;49.718;11.082;2024-02-26T13:30:08;1.60;;;1.50;;
37383;SDS011;23258;49.718;11.082;2024-02-26T13:32:39;1.55;;;1.45;;
37383;SDS011;23258;49.718;11.082;2024-02-26T13:35:10;1.70;;;1.60;;
37383;SDS011;23258;49.718;11.082;2024-02-26T13:37:40;1.63;;;1.52;;
37383;SDS011;23258;49.718;11.082;2024-02-26T13:40:10;1.70;;;1.60;;
37383;SDS011;23258;49.718;11.082;2024-02-26T13:42:40;2.78;;;1.73;;
37383;SDS011;23258;49.718;11.082;2024-02-26T13:45:13;1.77;;;1.67;;
37383;SDS011;23258;49.718;11.082;2024-02-26T13:47:42;1.75;;;1.60;;
37383;SDS011;23258;49.718;11.082;2024-02-26T13:50:12;1.83;;;1.73;;
37383;SDS011;23258;49.718;11.082;2024-02-26T13:52:42;1.80;;;1.70;;
37383;SDS011;23258;49.718;11.082;2024-02-26T13:55:12;1.48;;;1.38;;
37383;SDS011;23258;49.718;11.082;2024-02-26T13:57:41;1.80;;;1.70;;
37383;SDS011;23258;49.718;11.082;2024-02-26T14:00:14;1.77;;;1.60;;
37383;SDS011;23258;49.718;11.082;2024-02-26T14:02:44;1.42;;;1.40;;
37383;SDS011;23258;49.718;11.082;2024-02-26T14:05:14;1.92;;;1.83;;
37383;SDS011;23258;49.718;11.082;2024-02-26T14:07:44;4.22;;;1.77;;
37383;SDS011;23258;49.718;11.082;2024-02-26T14:10:19;3.13;;;1.92;;
37383;SDS011;23258;49.718;11.082;2024-02-26T14:12:50;1.90;;;1.80;;
37383;SDS011;23258;49.718;11.082;2024-02-26T14:15:22;1.80;;;1.70;;
37383;SDS011;23258;49.718;11.082;2024-02-26T14:17:52;2.03;;;1.80;;
37383;SDS011;23258;49.718;11.082;2024-02-26T14:20:24;1.60;;;1.50;;
37383;SDS011;23258;49.718;11.082;2024-02-26T14:22:53;4.40;;;4.00;;
37383;SDS011;23258;49.718;11.082;2024-02-26T14:25:23;2.20;;;2.10;;
37383;SDS011;23258;49.718;11.082;2024-02-26T14:27:56;1.60;;;1.50;;
37383;SDS011;23258;49.718;11.082;2024-02-26T14:30:29;2.25;;;1.80;;
37383;SDS011;23258;49.718;11.082;2024-02-26T14:32:59;2.10;;;2.00;;
37383;SDS011;23258;49.718;11.082;2024-02-26T14:35:30;2.03;;;1.92;;
37383;SDS011;23258;49.718;11.082;2024-02-26T14:37:59;1.73;;;1.63;;
37383;SDS011;23258;49.718;11.082;2024-02-26T14:40:29;2.50;;;2.22;;
37383;SDS011;23258;49.718;11.082;2024-02-26T14:42:59;2.20;;;2.00;;
37383;SDS011;23258;49.718;11.082;2024-02-26T14:45:33;2.47;;;2.00;;
37383;SDS011;23258;49.718;11.082;2024-02-26T14:48:05;1.70;;;1.60;;
37383;SDS011;23258;49.718;11.082;2024-02-26T14:50:35;2.17;;;1.98;;
37383;SDS011;23258;49.718;11.082;2024-02-26T14:53:05;1.85;;;1.70;;
37383;SDS011;23258;49.718;11.082;2024-02-26T14:55:35;2.35;;;1.90;;
37383;SDS011;23258;49.718;11.082;2024-02-26T14:58:07;2.92;;;2.28;;
37383;SDS011;23258;49.718;11.082;2024-02-26T15:00:40;2.17;;;1.95;;
37383;SDS011;23258;49.718;11.082;2024-02-26T15:03:10;4.50;;;1.98;;